Time;durP1;ratioP1;P1;durP2;ratioP2;P2;SDS_P1;SDS_P2;PMS_P1;PMS_P2;Temp;Humidity;BMP_temperature;BMP_pressure;BME280_temperature;BME280_humidity;BME280_pressure;Samples;Min_cycle;Max_cycle;Signal;HPM_P1;HPM_P2
2023/09/17 00:02:16;;;;;;;8.30;5.60;;;;;;;19.83;100.00;65062.53;5030002;28;20210;-52
2023/09/17 00:04:42;;;;;;;8.73;5.45;;;;;;;19.87;100.00;65069.50;5028982;28;20196;-50
2023/09/17 00:07:09;;;;;;;7.43;5.93;;;;;;;19.73;100.00;65056.59;5029838;28;20220;-51
2023/09/17 00:09:35;;;;;;;6.55;5.50;;;;;;;19.74;100.00;65055.13;5029052;28;20320;-51
2023/09/17 00:12:00;;;;;;;8.48;5.65;;;;;;;19.84;100.00;65063.63;5029368;28;20301;-52
2023/09/17 00:14:26;;;;;;;5.63;5.00;;;;;;;19.86;100.00;65068.38;5029916;28;20256;-52
2023/09/17 00:16:52;;;;;;;5.55;4.93;;;;;;;19.76;100.00;65057.91;5028898;28;20240;-52
2023/09/17 00:19:17;;;;;;;9.32;5.65;;;;;;;19.82;100.00;65063.97;5029531;28;20206;-58
2023/09/17 00:21:43;;;;;;;7.78;5.57;;;;;;;19.80;98.93;65059.75;5029867;28;20248;-50
2023/09/17 00:24:08;;;;;;;5.88;4.95;;;;;;;19.71;100.00;65052.38;5029911;28;20190;-52
2023/09/17 00:26:34;;;;;;;9.45;5.40;;;;;;;19.78;96.46;65060.09;5029838;28;20218;-52
2023/09/17 00:29:00;;;;;;;7.75;4.78;;;;;;;19.60;99.39;65037.09;5029792;28;20252;-52
2023/09/17 00:31:27;;;;;;;7.00;5.22;;;;;;;19.66;99.87;65046.28;5030094;28;20217;-54
2023/09/17 00:33:53;;;;;;;5.82;5.32;;;;;;;19.63;99.95;65043.56;5029858;28;20200;-51
2023/09/17 00:36:19;;;;;;;7.28;6.15;;;;;;;19.69;100.00;65049.63;5029974;28;20214;-52
2023/09/17 00:38:45;;;;;;;6.95;5.22;;;;;;;19.65;100.00;65043.19;5029537;28;20248;-52
2023/09/17 00:41:11;;;;;;;7.82;5.38;;;;;;;19.73;100.00;65051.47;5029763;28;20218;-50
2023/09/17 00:43:36;;;;;;;7.20;5.20;;;;;;;19.71;100.00;65054.94;5029788;28;20758;-51
2023/09/17 00:46:02;;;;;;;6.43;5.32;;;;;;;19.79;100.00;65063.78;5029569;28;20206;-50
2023/09/17 00:48:28;;;;;;;8.88;5.00;;;;;;;19.82;100.00;65063.97;5030031;28;20205;-51
2023/09/17 00:50:55;;;;;;;6.80;4.35;;;;;;;19.91;100.00;65074.47;5033154;28;20587;-52
2023/09/17 00:53:21;;;;;;;5.47;4.45;;;;;;;19.82;100.00;65061.97;5032898;28;20210;-51
2023/09/17 00:55:47;;;;;;;8.10;4.85;;;;;;;19.70;100.00;65050.72;5032950;28;20206;-52
2023/09/17 00:58:12;;;;;;;6.55;4.70;;;;;;;19.62;100.00;65042.44;5032778;28;20216;-51
2023/09/17 01:00:38;;;;;;;7.47;5.50;;;;;;;19.72;100.00;65053.47;5032889;28;20190;-51
2023/09/17 01:03:06;;;;;;;6.90;4.93;;;;;;;19.74;100.00;65055.69;5032789;28;20232;-51
2023/09/17 01:05:39;;;;;;;5.55;5.05;;;;;;;19.60;100.00;65037.66;5032736;28;20202;-52
2023/09/17 01:08:09;;;;;;;8.10;5.10;;;;;;;19.63;100.00;65043.56;5032910;28;20338;-52
2023/09/17 01:10:35;;;;;;;7.97;5.85;;;;;;;19.78;100.00;65060.09;5031667;28;20205;-52
2023/09/17 01:13:04;;;;;;;5.88;5.28;;;;;;;19.65;100.00;65045.75;5031398;28;20244;-53
2023/09/17 01:15:30;;;;;;;6.97;5.47;;;;;;;19.75;100.00;65056.81;5032505;28;20206;-52
2023/09/17 01:17:57;;;;;;;7.05;6.20;;;;;;;19.84;100.00;65063.63;5032581;28;20260;-55
2023/09/17 01:20:30;;;;;;;8.60;7.00;;;;;;;19.77;100.00;65058.44;5032416;28;20208;-57
2023/09/17 01:23:10;;;;;;;11.55;7.70;;;;;;;19.52;100.00;65028.84;5032443;28;20230;-53
2023/09/17 01:25:58;;;;;;;11.63;8.80;;;;;;;19.51;100.00;65029.75;5032491;28;20225;-52
2023/09/17 01:28:23;;;;;;;10.75;8.77;;;;;;;19.52;100.00;65028.28;5032551;28;20216;-57
2023/09/17 01:30:49;;;;;;;13.38;10.57;;;;;;;19.30;100.00;65009.63;5032759;28;20202;-51
2023/09/17 01:33:16;;;;;;;11.73;9.82;;;;;;;19.34;100.00;65011.53;5032076;28;20236;-52
2023/09/17 01:35:57;;;;;;;15.77;11.23;;;;;;;19.20;100.00;64993.50;5047545;28;20206;-51
2023/09/17 01:38:32;;;;;;;15.32;11.43;;;;;;;19.27;100.00;65004.31;5032411;28;20630;-52
2023/09/17 01:41:01;;;;;;;16.35;11.75;;;;;;;19.24;100.00;65000.47;5032215;28;20727;-51
2023/09/17 01:43:27;;;;;;;12.18;10.88;;;;;;;19.34;100.00;65011.53;5032107;28;20194;-52
2023/09/17 01:45:53;;;;;;;13.27;11.45;;;;;;;19.32;100.00;65006.72;5032113;28;20198;-52
2023/09/17 01:48:20;;;;;;;14.57;11.88;;;;;;;19.21;100.00;64997.69;5032111;28;20198;-51
2023/09/17 01:50:47;;;;;;;17.15;12.77;;;;;;;19.22;100.00;64998.25;5031855;28;20209;-50
2023/09/17 01:53:12;;;;;;;15.43;12.48;;;;;;;19.19;100.00;64994.94;5031872;28;20206;-51
2023/09/17 01:55:38;;;;;;;14.40;12.73;;;;;;;19.29;100.00;65003.97;5031924;28;20206;-58
2023/09/17 01:58:04;;;;;;;15.73;13.55;;;;;;;19.05;100.00;64982.59;5031952;28;20214;-53
2023/09/17 02:00:31;;;;;;;19.42;14.18;;;;;;;19.15;100.00;64991.06;5031503;28;20194;-51
2023/09/17 02:02:56;;;;;;;20.88;13.85;;;;;;;19.04;100.00;64978.94;5031701;28;20282;-51
2023/09/17 02:05:25;;;;;;;17.60;14.48;;;;;;;19.06;100.00;64978.03;5031657;28;20210;-52
2023/09/17 02:07:52;;;;;;;20.25;14.32;;;;;;;19.20;100.00;64993.50;5031709;28;20693;-51
2023/09/17 02:10:18;;;;;;;19.63;14.70;;;;;;;19.19;100.00;64992.38;5031791;28;20233;-52
2023/09/17 02:12:43;;;;;;;21.05;15.10;;;;;;;19.27;100.00;65003.75;5031732;28;20214;-51
2023/09/17 02:15:12;;;;;;;18.05;14.70;;;;;;;19.19;100.00;64994.94;5031779;28;20699;-52
2023/09/17 02:17:38;;;;;;;17.75;14.15;;;;;;;19.22;100.00;64995.69;5031500;28;20217;-52
2023/09/17 02:20:08;;;;;;;17.02;14.50;;;;;;;19.42;100.00;65022.91;5031504;28;20292;-52
2023/09/17 02:22:33;;;;;;;17.17;14.38;;;;;;;19.34;100.00;65010.97;5031572;28;20359;-52
2023/09/17 02:24:59;;;;;;;18.75;13.88;;;;;;;19.32;100.00;65009.28;5031757;28;20679;-51
2023/09/17 02:27:24;;;;;;;14.70;12.90;;;;;;;19.20;100.00;64993.50;5031782;28;20252;-52
2023/09/17 02:29:50;;;;;;;18.02;15.00;;;;;;;19.20;100.00;64993.50;5031495;28;20284;-51
2023/09/17 02:32:16;;;;;;;15.75;13.52;;;;;;;19.20;100.00;64994.03;5031327;28;20301;-51
2023/09/17 02:34:42;;;;;;;16.08;13.55;;;;;;;19.16;100.00;64991.63;5031313;28;20287;-51
2023/09/17 02:37:07;;;;;;;17.67;13.70;;;;;;;19.31;100.00;65005.63;5031391;28;20265;-51
2023/09/17 02:39:35;;;;;;;14.55;12.57;;;;;;;19.19;100.00;64995.50;5031210;28;20205;-51
2023/09/17 02:42:00;;;;;;;14.43;12.35;;;;;;;19.10;100.00;64985.56;5030914;28;20217;-52
2023/09/17 02:44:26;;;;;;;17.65;13.85;;;;;;;19.20;100.00;64999.16;5031199;28;20197;-52
2023/09/17 02:46:51;;;;;;;16.23;12.80;;;;;;;19.04;100.00;64975.84;5031464;28;20684;-51
2023/09/17 02:49:17;;;;;;;16.42;13.30;;;;;;;19.10;100.00;64983.00;5031083;28;20195;-52
2023/09/17 02:51:42;;;;;;;16.70;12.77;;;;;;;19.02;100.00;64976.19;5031398;28;20218;-51
2023/09/17 02:54:08;;;;;;;15.98;12.70;;;;;;;18.96;100.00;64970.13;5031077;28;20708;-52
2023/09/17 02:56:33;;;;;;;18.08;12.93;;;;;;;18.93;100.00;64963.69;5031113;28;20384;-52
2023/09/17 02:58:59;;;;;;;15.35;12.80;;;;;;;18.90;100.00;64965.50;5031162;28;20623;-51
2023/09/17 03:01:25;;;;;;;14.52;12.38;;;;;;;18.98;100.00;64974.88;5030742;28;20315;-51
2023/09/17 03:03:50;;;;;;;17.02;12.93;;;;;;;18.86;100.00;64955.97;5031128;28;20210;-51
2023/09/17 03:06:16;;;;;;;21.65;16.27;;;;;;;18.75;100.00;64946.94;5030877;28;20655;-52
2023/09/17 03:08:43;;;;;;;18.85;13.60;;;;;;;18.82;100.00;64954.13;5031119;28;20755;-52
2023/09/17 03:11:13;;;;;;;15.75;13.82;;;;;;;18.61;100.00;64928.94;5039926;22;20767;-50
2023/09/17 03:13:44;;;;;;;17.55;13.68;;;;;;;18.82;100.00;64956.66;5052186;28;20224;-55
2023/09/17 03:16:12;;;;;;;16.85;12.52;;;;;;;18.76;100.00;64948.03;5068711;28;20216;-56
2023/09/17 03:18:38;;;;;;;15.63;11.95;;;;;;;18.55;100.00;64922.31;5050800;28;20201;-52
2023/09/17 03:21:07;;;;;;;15.43;12.73;;;;;;;18.65;100.00;64935.34;5050832;28;20205;-50
2023/09/17 03:23:33;;;;;;;17.08;13.20;;;;;;;18.72;100.00;64941.09;5050818;28;20198;-51
2023/09/17 03:26:03;;;;;;;21.23;12.85;;;;;;;18.80;100.00;64951.91;5050816;28;20197;-51
2023/09/17 03:28:29;;;;;;;17.35;13.15;;;;;;;18.75;100.00;64946.38;5050641;28;20209;-51
2023/09/17 03:30:55;;;;;;;25.00;19.77;;;;;;;18.53;100.00;64922.09;5050524;28;20252;-52
2023/09/17 03:33:23;;;;;;;16.38;13.98;;;;;;;18.61;100.00;64930.94;5032577;28;20696;-56
2023/09/17 03:35:48;;;;;;;14.27;11.50;;;;;;;18.73;100.00;64941.63;5050504;28;20186;-51
2023/09/17 03:38:14;;;;;;;15.35;11.93;;;;;;;18.47;100.00;64915.50;5050400;28;20768;-52
2023/09/17 03:40:40;;;;;;;16.02;13.23;;;;;;;18.70;100.00;64940.88;5050262;28;20628;-53
2023/09/17 03:43:06;;;;;;;13.63;12.05;;;;;;;18.77;100.00;64948.59;5050424;28;20307;-52
2023/09/17 03:45:31;;;;;;;17.42;12.35;;;;;;;18.65;100.00;64933.34;5050322;28;20592;-52
2023/09/17 03:47:57;;;;;;;17.80;12.88;;;;;;;18.51;100.00;64919.91;5032395;28;20209;-53
2023/09/17 03:50:23;;;;;;;19.48;13.13;;;;;;;18.50;100.00;64921.91;5050331;28;20255;-51
2023/09/17 03:52:52;;;;;;;18.60;12.52;;;;;;;18.54;100.00;64921.22;5050126;28;20217;-50
2023/09/17 03:55:18;;;;;;;17.40;11.85;;;;;;;18.57;100.00;64931.63;5050245;28;20197;-52
2023/09/17 03:57:44;;;;;;;17.50;11.63;;;;;;;18.72;100.00;64940.53;5050174;28;20253;-52
2023/09/17 04:00:11;;;;;;;22.13;13.85;;;;;;;18.59;100.00;64929.28;5050238;28;20189;-51
2023/09/17 04:02:37;;;;;;;17.52;12.57;;;;;;;18.57;100.00;64923.97;5031952;28;20225;-51
2023/09/17 04:05:14;;;;;;;15.10;11.93;;;;;;;18.56;100.00;64925.44;5050086;28;20205;-51
2023/09/17 04:07:41;;;;;;;15.45;11.98;;;;;;;18.61;100.00;64930.94;5050272;28;20216;-50
2023/09/17 04:10:08;;;;;;;21.15;11.68;;;;;;;18.55;100.00;64921.75;5050000;28;20178;-51
2023/09/17 04:12:34;;;;;;;18.98;13.48;;;;;;;18.57;100.00;64926.53;5050337;28;20206;-52
2023/09/17 04:15:02;;;;;;;18.55;12.43;;;;;;;18.60;100.00;64927.28;5049832;28;20236;-51
2023/09/17 04:17:28;;;;;;;16.50;12.05;;;;;;;18.50;100.00;64919.38;5050276;28;20308;-50
2023/09/17 04:19:55;;;;;;;17.10;11.75;;;;;;;18.46;100.00;64914.41;5050116;28;20281;-51
2023/09/17 04:22:20;;;;;;;15.38;12.45;;;;;;;18.60;100.00;64932.94;5049707;28;20225;-51
2023/09/17 04:24:45;;;;;;;13.55;11.25;;;;;;;18.48;100.00;64914.06;5053418;28;20626;-52
2023/09/17 04:27:11;;;;;;;18.67;13.20;;;;;;;18.56;100.00;64930.53;5053343;28;20645;-52
2023/09/17 04:29:37;;;;;;;24.25;13.73;;;;;;;18.72;100.00;64945.63;5053146;28;20193;-52
2023/09/17 04:32:03;;;;;;;18.30;13.50;;;;;;;18.76;100.00;64950.59;5053052;28;20217;-51
2023/09/17 04:34:32;;;;;;;20.77;13.50;;;;;;;18.78;100.00;64949.69;5053234;28;20269;-51
2023/09/17 04:36:58;;;;;;;19.00;13.35;;;;;;;18.59;100.00;64926.16;5053012;28;20224;-59
2023/09/17 04:39:27;;;;;;;18.95;14.35;;;;;;;18.70;100.00;64940.88;5035520;28;20663;-57
2023/09/17 04:41:53;;;;;;;18.27;13.73;;;;;;;18.67;100.00;64940.09;5053294;28;20229;-55
2023/09/17 04:44:19;;;;;;;20.70;14.45;;;;;;;18.68;100.00;64938.66;5053048;28;20223;-55
2023/09/17 04:46:45;;;;;;;21.10;15.25;;;;;;;18.74;100.00;64942.72;5052957;28;20221;-58
2023/09/17 04:49:11;;;;;;;21.95;14.10;;;;;;;18.88;100.00;64960.72;5053048;28;20190;-54
2023/09/17 04:51:37;;;;;;;23.77;16.50;;;;;;;18.77;100.00;64948.59;5053230;28;20209;-56
2023/09/17 04:54:04;;;;;;;19.77;15.30;;;;;;;18.87;100.00;64959.63;5052844;28;20224;-55
2023/09/17 04:56:32;;;;;;;21.83;15.73;;;;;;;18.84;100.00;64956.88;5053036;28;20224;-56
2023/09/17 04:58:59;;;;;;;21.35;16.23;;;;;;;18.87;100.00;64959.63;5035042;28;20644;-56
2023/09/17 05:01:25;;;;;;;22.55;15.20;;;;;;;19.03;100.00;64977.28;5034893;28;20218;-56
2023/09/17 05:03:51;;;;;;;20.20;15.43;;;;;;;19.13;100.00;64988.31;5052507;28;20193;-53
2023/09/17 05:06:16;;;;;;;22.23;14.88;;;;;;;19.25;100.00;65002.09;5034764;28;20205;-55
2023/09/17 05:08:41;;;;;;;19.00;14.05;;;;;;;19.17;100.00;64990.16;5052947;28;20209;-56
2023/09/17 05:11:07;;;;;;;18.77;13.52;;;;;;;19.13;100.00;64988.31;5052728;28;20710;-64
2023/09/17 05:13:33;;;;;;;19.50;14.57;;;;;;;19.23;100.00;64999.91;5052660;28;20205;-56
2023/09/17 05:15:58;;;;;;;21.02;14.57;;;;;;;19.16;100.00;64994.75;5052865;28;20197;-54
2023/09/17 05:18:24;;;;;;;20.42;15.18;;;;;;;19.33;100.00;65010.44;5052549;28;20723;-58
2023/09/17 05:20:53;;;;;;;24.23;15.95;;;;;;;19.32;100.00;65009.28;5052528;28;20197;-54
2023/09/17 05:23:19;;;;;;;20.48;15.07;;;;;;;19.43;100.00;65024.03;5052280;28;20799;-55
2023/09/17 05:25:44;;;;;;;22.67;16.13;;;;;;;19.53;100.00;65029.94;5052094;28;20280;-55
2023/09/17 05:28:10;;;;;;;25.85;16.50;;;;;;;19.62;100.00;65042.44;5034525;28;20203;-55
2023/09/17 05:30:37;;;;;;;21.30;15.35;;;;;;;19.66;100.00;65046.84;5052239;28;20212;-54
2023/09/17 05:33:04;;;;;;;26.23;16.20;;;;;;;19.70;100.00;65050.72;5052159;28;20239;-59
2023/09/17 05:35:30;;;;;;;21.55;15.50;;;;;;;19.84;100.00;65066.16;5051196;28;20198;-58
2023/09/17 05:37:56;;;;;;;21.83;16.40;;;;;;;19.85;100.00;65065.28;5034311;28;20328;-55
2023/09/17 05:40:22;;;;;;;23.42;16.63;;;;;;;19.86;100.00;65065.81;5034135;28;20659;-56
2023/09/17 05:42:56;;;;;;;22.60;16.38;;;;;;;19.83;100.00;65060.53;5051954;28;20243;-55
2023/09/17 05:45:22;;;;;;;29.13;17.13;;;;;;;19.80;100.00;65059.75;5034165;28;20244;-61
2023/09/17 05:47:48;;;;;;;21.63;17.20;;;;;;;19.85;100.00;65069.84;5051973;28;20224;-56
2023/09/17 05:50:14;;;;;;;21.58;16.55;;;;;;;19.67;100.00;65049.97;5052014;28;20197;-56
2023/09/17 05:52:39;;;;;;;23.83;16.52;;;;;;;19.77;100.00;65055.91;5033992;28;20715;-56
2023/09/17 05:55:05;;;;;;;23.83;16.33;;;;;;;19.47;100.00;65020.78;5052100;28;20200;-55
2023/09/17 05:57:31;;;;;;;23.58;16.70;;;;;;;19.70;100.00;65050.72;5051759;28;20688;-55
2023/09/17 05:59:58;;;;;;;26.45;17.23;;;;;;;19.71;100.00;65051.81;5051876;28;20204;-56
2023/09/17 06:02:23;;;;;;;23.98;17.33;;;;;;;19.82;100.00;65061.41;5033908;28;20221;-61
2023/09/17 06:04:53;;;;;;;22.58;17.10;;;;;;;19.77;100.00;65058.44;5033848;28;20189;-55
2023/09/17 06:07:19;;;;;;;25.45;17.58;;;;;;;19.81;100.00;65060.31;5052233;28;20217;-54
2023/09/17 06:09:44;;;;;;;25.35;18.23;;;;;;;19.89;100.00;65071.69;5051718;28;20193;-56
2023/09/17 06:12:10;;;;;;;23.92;18.73;;;;;;;19.86;100.00;65068.94;5051521;28;20212;-55
2023/09/17 06:14:36;;;;;;;23.00;18.27;;;;;;;20.01;100.00;65082.97;5051804;28;20294;-55
2023/09/17 06:17:02;;;;;;;29.33;18.38;;;;;;;20.34;100.00;65123.97;5033379;28;20691;-55
2023/09/17 06:19:29;;;;;;;27.90;18.73;;;;;;;20.54;100.00;65140.44;5051817;28;20614;-55
2023/09/17 06:21:54;;;;;;;26.73;19.00;;;;;;;20.70;100.00;65161.22;5051326;28;20252;-54
2023/09/17 06:24:21;;;;;;;23.20;16.92;;;;;;;20.95;100.00;65187.75;5051433;28;20629;-54
2023/09/17 06:26:47;;;;;;;26.52;18.65;;;;;;;21.11;100.00;65208.56;5051311;28;20214;-55
2023/09/17 06:29:12;;;;;;;23.98;18.08;;;;;;;21.18;100.00;65213.75;5051288;28;20217;-55
2023/09/17 06:31:39;;;;;;;26.25;18.05;;;;;;;21.25;100.00;65218.94;5051548;28;20241;-57
2023/09/17 06:34:05;;;;;;;24.33;17.63;;;;;;;21.38;100.00;65233.31;5051380;28;20182;-56
2023/09/17 06:36:31;;;;;;;23.73;18.35;;;;;;;21.45;100.00;65243.59;5051651;28;20213;-56
2023/09/17 06:38:57;;;;;;;24.38;17.08;;;;;;;21.39;100.00;65236.97;5051444;28;20741;-56
2023/09/17 06:41:22;;;;;;;23.65;18.20;;;;;;;21.50;100.00;65246.59;5050788;28;20248;-55
2023/09/17 06:43:48;;;;;;;22.65;16.10;;;;;;;21.64;100.00;65262.06;5050857;28;20276;-59
2023/09/17 06:46:15;;;;;;;22.13;17.48;;;;;;;21.61;100.00;65261.31;5050794;28;20233;-56
2023/09/17 06:48:41;;;;;;;24.02;17.77;;;;;;;21.52;100.00;65251.38;5032853;28;20255;-55
2023/09/17 06:51:06;;;;;;;32.97;20.33;;;;;;;21.42;100.00;65239.75;5051082;28;20607;-56
2023/09/17 06:53:32;;;;;;;23.30;17.35;;;;;;;21.13;100.00;65207.69;5050943;28;20202;-58
2023/09/17 06:55:59;;;;;;;24.83;18.92;;;;;;;20.80;100.00;65169.72;5050974;28;20232;-56
2023/09/17 06:58:25;;;;;;;26.67;18.75;;;;;;;20.74;100.00;65162.53;5051373;28;20198;-56
2023/09/17 07:00:50;;;;;;;29.98;21.40;;;;;;;20.53;100.00;65142.44;5050927;28;20284;-56
2023/09/17 07:03:17;;;;;;;30.67;20.98;;;;;;;20.48;100.00;65136.34;5050486;28;20224;-56
2023/09/17 07:05:43;;;;;;;31.38;21.98;;;;;;;20.51;100.00;65139.66;5032781;28;20201;-55
2023/09/17 07:08:09;;;;;;;26.65;19.42;;;;;;;20.38;100.00;65127.88;5050682;28;20258;-56
2023/09/17 07:10:36;;;;;;;30.77;22.33;;;;;;;20.38;100.00;65122.75;5050528;28;20299;-55
2023/09/17 07:13:02;;;;;;;31.65;22.33;;;;;;;20.49;100.00;65137.44;5050784;28;20224;-56
2023/09/17 07:15:28;;;;;;;28.95;20.20;;;;;;;20.59;100.00;65145.94;5050566;28;20197;-56
2023/09/17 07:17:54;;;;;;;54.25;32.03;;;;;;;20.60;100.00;65149.63;5050682;28;20277;-55
2023/09/17 07:20:19;;;;;;;27.83;20.95;;;;;;;20.66;100.00;65156.81;5050682;28;20683;-56
2023/09/17 07:22:47;;;;;;;27.33;20.05;;;;;;;20.74;100.00;65165.09;5050227;28;20701;-56
2023/09/17 07:25:14;;;;;;;29.20;20.05;;;;;;;20.69;100.00;65157.00;5032319;28;20208;-54
2023/09/17 07:27:40;;;;;;;27.00;20.50;;;;;;;20.84;100.00;65173.59;5050452;28;20213;-55
2023/09/17 07:30:06;;;;;;;30.45;20.60;;;;;;;20.84;100.00;65173.59;5050465;28;20196;-56
2023/09/17 07:32:31;;;;;;;26.70;19.35;;;;;;;21.08;100.00;65202.69;5050502;28;20213;-59
2023/09/17 07:34:58;;;;;;;31.02;20.40;;;;;;;21.17;100.00;65210.06;5032556;28;20173;-57
2023/09/17 07:37:23;;;;;;;27.98;19.85;;;;;;;21.19;100.00;65212.28;5050154;28;20745;-55
2023/09/17 07:39:55;;;;;;;27.45;20.30;;;;;;;21.22;100.00;65215.63;5050484;28;20293;-61
2023/09/17 07:42:21;;;;;;;25.50;19.67;;;;;;;21.35;100.00;65229.44;5049970;28;20217;-56
2023/09/17 07:44:48;;;;;;;27.58;18.83;;;;;;;21.51;100.00;65250.25;5050141;28;20690;-55
2023/09/17 07:47:22;;;;;;;26.48;20.48;;;;;;;21.50;100.00;65246.59;5050268;28;20236;-55
2023/09/17 07:49:49;;;;;;;28.75;20.27;;;;;;;21.83;100.00;65285.13;5050174;28;20213;-53
2023/09/17 07:52:17;;;;;;;32.13;22.30;;;;;;;21.85;100.00;65284.22;5049932;28;20213;-54
2023/09/17 07:54:43;;;;;;;29.75;21.90;;;;;;;21.82;100.00;65280.88;5032157;28;20205;-56
2023/09/17 07:57:13;;;;;;;33.40;22.88;;;;;;;21.68;100.00;65269.06;5032436;28;20205;-57
2023/09/17 07:59:39;;;;;;;30.77;22.70;;;;;;;21.67;100.00;65265.38;5056704;28;20190;-55
2023/09/17 08:02:05;;;;;;;32.70;24.10;;;;;;;21.55;100.00;65254.66;5056358;28;20253;-57
2023/09/17 08:04:30;;;;;;;29.05;22.42;;;;;;;21.57;100.00;65254.31;5056665;28;20726;-57
2023/09/17 08:06:59;;;;;;;35.45;25.00;;;;;;;21.62;100.00;65259.31;5056709;28;20288;-57
2023/09/17 08:09:25;;;;;;;151.93;101.78;;;;;;;21.57;100.00;65251.75;5056471;28;20193;-57
2023/09/17 08:11:51;;;;;;;38.97;27.63;;;;;;;21.54;100.00;65256.13;5038532;28;20281;-57
2023/09/17 08:14:17;;;;;;;36.45;25.10;;;;;;;21.93;100.00;65293.06;5056682;28;20206;-57
2023/09/17 08:16:43;;;;;;;26.75;19.77;;;;;;;22.08;100.00;65310.22;5056574;28;20235;-56
2023/09/17 08:19:09;;;;;;;43.53;31.52;;;;;;;21.90;100.00;65290.31;5056662;28;20242;-56
2023/09/17 08:21:34;;;;;;;31.63;22.75;;;;;;;21.89;100.00;65288.66;5056487;28;20701;-56
2023/09/17 08:24:00;;;;;;;32.58;22.13;;;;;;;22.02;100.00;65303.56;5038514;28;20200;-57
2023/09/17 08:26:27;;;;;;;44.42;31.90;;;;;;;21.88;100.00;65287.53;5056674;28;20626;-57
2023/09/17 08:28:56;;;;;;;31.25;22.42;;;;;;;21.89;100.00;65286.63;5056698;28;20216;-60
2023/09/17 08:31:25;;;;;;;28.80;21.13;;;;;;;21.90;100.00;65289.75;5056417;28;20209;-56
2023/09/17 08:33:52;;;;;;;30.30;20.48;;;;;;;22.12;100.00;65317.22;5056217;28;20691;-56
2023/09/17 08:36:24;;;;;;;29.88;21.63;;;;;;;22.22;100.00;65328.28;5038138;28;20282;-57
2023/09/17 08:38:52;;;;;;;29.42;20.35;;;;;;;22.18;100.00;65320.75;5056149;28;20201;-57
2023/09/17 08:41:18;;;;;;;28.08;20.52;;;;;;;22.10;100.00;65315.00;5055887;28;20225;-57
2023/09/17 08:43:49;;;;;;;28.15;19.65;;;;;;;22.05;100.00;65306.91;5056046;28;20288;-56
2023/09/17 08:46:18;;;;;;;32.80;22.40;;;;;;;21.99;100.00;65300.28;5056103;28;20209;-57
2023/09/17 08:48:46;;;;;;;27.02;19.40;;;;;;;21.99;100.00;65299.72;5038152;28;20304;-57
2023/09/17 08:51:17;;;;;;;29.27;20.63;;;;;;;21.94;100.00;65294.72;5056028;28;20248;-56
2023/09/17 08:53:58;;;;;;;49.95;36.28;;;;;;;21.97;100.00;65298.06;5082048;22;20255;-57
2023/09/17 08:56:26;;;;;;;28.15;19.45;;;;;;;21.93;100.00;65293.06;5071438;28;20410;-57
2023/09/17 08:58:55;;;;;;;29.10;19.60;;;;;;;21.99;99.77;65299.72;5037865;28;20208;-56
2023/09/17 09:01:26;;;;;;;25.95;18.88;;;;;;;21.89;100.00;65289.19;5055621;28;20245;-56
2023/09/17 09:03:54;;;;;;;24.92;17.60;;;;;;;21.90;100.00;65289.75;5055694;28;20205;-56
2023/09/17 09:06:28;;;;;;;28.77;20.30;;;;;;;22.05;100.00;65306.34;5055748;28;20202;-57
2023/09/17 09:08:55;;;;;;;30.98;21.90;;;;;;;22.12;100.00;65311.53;5054620;28;20228;-57
2023/09/17 09:11:22;;;;;;;27.05;19.75;;;;;;;22.45;98.56;65350.63;5051710;28;20241;-57
2023/09/17 09:13:50;;;;;;;43.65;28.65;;;;;;;22.34;100.00;65341.03;5052439;28;20194;-57
2023/09/17 09:16:17;;;;;;;30.27;20.95;;;;;;;22.54;99.89;65360.59;5052292;28;20733;-57
2023/09/17 09:18:44;;;;;;;32.80;21.08;;;;;;;22.48;98.94;65353.94;5034368;28;20292;-57
2023/09/17 09:21:10;;;;;;;24.58;17.98;;;;;;;22.42;97.50;65344.75;5034683;28;20199;-56
2023/09/17 09:23:36;;;;;;;28.17;20.50;;;;;;;22.71;97.04;65376.28;5051019;28;20593;-55
2023/09/17 09:26:03;;;;;;;27.90;19.38;;;;;;;22.77;99.33;65386.06;5052325;28;20205;-56
2023/09/17 09:28:32;;;;;;;26.17;19.48;;;;;;;22.93;95.20;65403.78;5052601;28;20217;-57
2023/09/17 09:30:59;;;;;;;27.35;18.65;;;;;;;23.07;91.66;65421.31;5052034;28;20205;-56
2023/09/17 09:33:24;;;;;;;25.33;17.88;;;;;;;23.06;91.38;65418.19;5052423;28;20205;-55
2023/09/17 09:35:50;;;;;;;26.67;18.08;;;;;;;23.24;92.14;65438.13;5051945;28;20197;-55
2023/09/17 09:38:18;;;;;;;27.90;19.58;;;;;;;23.65;92.78;65482.47;5051880;28;20205;-57
2023/09/17 09:40:45;;;;;;;25.45;19.73;;;;;;;24.22;90.60;65542.56;5052105;28;20197;-56
2023/09/17 09:43:32;;;;;;;28.35;20.38;;;;;;;24.69;86.75;65595.22;5050611;28;20585;-56
2023/09/17 09:46:04;;;;;;;29.45;19.92;;;;;;;25.36;81.29;65671.06;5051794;28;20192;-55
2023/09/17 09:48:30;;;;;;;25.75;20.70;;;;;;;25.57;79.70;65694.41;5052315;28;20219;-56
2023/09/17 09:50:56;;;;;;;24.92;19.42;;;;;;;25.80;76.54;65715.31;5051741;28;20197;-56
2023/09/17 09:53:22;;;;;;;23.67;17.88;;;;;;;25.79;71.73;65716.81;5051834;28;20229;-55
2023/09/17 09:55:48;;;;;;;24.50;17.83;;;;;;;25.74;73.05;65713.81;5033866;28;20604;-56
2023/09/17 09:58:14;;;;;;;29.95;22.45;;;;;;;25.42;75.08;65677.75;5051708;28;20221;-59
2023/09/17 10:00:45;;;;;;;23.42;18.95;;;;;;;25.88;72.57;65728.28;5051864;28;20691;-55
2023/09/17 10:03:12;;;;;;;22.85;17.83;;;;;;;25.96;71.94;65735.09;5051594;28;20221;-56
2023/09/17 10:05:42;;;;;;;23.23;18.63;;;;;;;25.55;72.38;65692.19;5051612;28;20194;-57
2023/09/17 10:08:09;;;;;;;27.13;20.25;;;;;;;25.56;74.59;65690.69;5051857;28;20703;-56
2023/09/17 10:10:37;;;;;;;27.90;23.33;;;;;;;25.61;74.22;65696.78;5051536;28;20192;-56
2023/09/17 10:13:06;;;;;;;27.80;19.90;;;;;;;25.42;74.88;65677.75;5033521;28;20236;-55
2023/09/17 10:15:34;;;;;;;24.02;19.13;;;;;;;25.26;76.04;65660.53;5051676;28;20308;-56
2023/09/17 10:18:01;;;;;;;24.55;19.30;;;;;;;25.03;75.96;65635.00;5051798;28;20292;-56
2023/09/17 10:20:28;;;;;;;26.80;20.25;;;;;;;24.61;76.92;65588.38;5051091;28;20205;-55
2023/09/17 10:22:55;;;;;;;26.70;19.25;;;;;;;24.46;80.23;65569.72;5033467;28;20319;-56
2023/09/17 10:25:22;;;;;;;111.50;43.20;;;;;;;24.26;80.17;65550.09;5051471;28;20213;-55
2023/09/17 10:27:50;;;;;;;105.25;41.28;;;;;;;24.02;81.51;65524.03;5051568;28;20213;-56
2023/09/17 10:30:18;;;;;;;48.42;24.42;;;;;;;23.93;82.04;65513.50;5051278;28;20193;-54
2023/09/17 10:32:46;;;;;;;52.05;27.25;;;;;;;23.68;81.74;65483.22;5051305;28;20603;-56
2023/09/17 10:35:12;;;;;;;233.85;78.78;;;;;;;23.65;83.27;65482.47;5051157;28;20205;-55
2023/09/17 10:37:40;;;;;;;33.22;22.77;;;;;;;23.71;82.48;65489.13;5032949;28;20212;-56
2023/09/17 10:40:09;;;;;;;26.85;18.85;;;;;;;23.71;80.74;65489.69;5051004;28;20176;-57
2023/09/17 10:42:38;;;;;;;27.60;20.75;;;;;;;23.35;84.43;65452.91;5050953;28;20257;-56
2023/09/17 10:45:07;;;;;;;30.55;22.50;;;;;;;23.30;85.47;65444.78;5051191;28;20197;-56
2023/09/17 10:47:35;;;;;;;30.00;19.77;;;;;;;23.43;84.76;65460.69;5050659;28;20304;-56
2023/09/17 10:50:03;;;;;;;29.23;20.90;;;;;;;23.55;85.33;65471.41;5032829;28;20194;-56
2023/09/17 10:52:32;;;;;;;26.83;19.83;;;;;;;23.69;83.04;65487.47;5032842;28;20275;-56
2023/09/17 10:54:59;;;;;;;26.10;20.48;;;;;;;23.87;84.41;65507.41;5050926;28;20285;-55
2023/09/17 10:57:38;;;;;;;25.67;19.92;;;;;;;23.93;84.32;65510.94;5050813;28;20216;-55
2023/09/17 11:00:07;;;;;;;28.20;19.63;;;;;;;23.98;82.38;65519.03;5032873;28;20198;-56
2023/09/17 11:02:36;;;;;;;19.25;16.42;;;;;;;23.76;78.23;65492.66;5050816;28;20217;-55
2023/09/17 11:05:04;;;;;;;24.75;19.05;;;;;;;23.66;80.34;65483.56;5050618;28;20263;-57
2023/09/17 11:07:32;;;;;;;26.17;20.77;;;;;;;23.61;84.60;65478.03;5050627;28;20271;-56
2023/09/17 11:09:59;;;;;;;34.72;22.83;;;;;;;23.59;80.02;65473.81;5032880;28;20641;-55
2023/09/17 11:12:25;;;;;;;24.95;19.00;;;;;;;23.64;82.41;65481.91;5051143;28;20250;-57